^^
Station Historical Data
Daily Summary for September 2, 2017 Units:  English    Metric   Both
« Previous Day
Next Day »
Daily Weekly Monthly Yearly Custom
  High: Low: Average:
Temperature: 65.8 °F 47.0 °F 57.1 °F
Dew Point: 55.1 °F 42.5 °F 47.4 °F
Humidity: 95% 54% 71%
Wind Speed: 3.0mph 0.0mph 0.4mph
Wind Gust: 10.0mph - -
Wind- - SW
Pressure: 30.27 in 30.13 in -
Precipitation: 0.40 in    
Historical Graphs
 
 
Tabular Data for September 2, 2017
Time Temperature Dew Point Pressure Wind Wind Speed Wind Gust Humidity Rainfall Rate (Hourly) Conditions
00:00 55.4 °F 44.6 °F 30.19 in Calm     67% 0.00 in CLR
00:15 55.1 °F 43.9 °F 30.19 in Calm   2.0 mph 66% 0.00 in CLR
00:30 54.9 °F 43.4 °F 30.20 in Calm   2.0 mph 65% 0.00 in CLR
00:45 54.5 °F 43.4 °F 30.20 in Calm   1.0 mph 66% 0.00 in CLR
01:00 54.1 °F 43.4 °F 30.20 in Calm   1.0 mph 67% 0.00 in CLR
01:15 53.7 °F 43.4 °F 30.20 in SSW 1.0 mph 3.0 mph 68% 0.00 in CLR
01:30 53.6 °F 43.7 °F 30.21 in Calm   2.0 mph 69% 0.00 in CLR
01:45 52.9 °F 43.4 °F 30.21 in Calm     70% 0.00 in CLR
02:00 53.4 °F 43.5 °F 30.21 in Calm   2.0 mph 69% 0.00 in CLR
02:15 53.4 °F 43.9 °F 30.21 in Calm   4.0 mph 70% 0.00 in CLR
02:30 52.6 °F 43.8 °F 30.21 in Calm   1.0 mph 72% 0.00 in CLR
02:45 52.0 °F 43.6 °F 30.21 in Calm     73% 0.00 in CLR
03:00 51.3 °F 43.3 °F 30.21 in Calm     74% 0.00 in CLR
03:15 50.1 °F 43.2 °F 30.21 in Calm     77% 0.00 in CLR
03:30 49.4 °F 43.2 °F 30.20 in Calm     79% 0.00 in CLR
03:45 49.1 °F 43.2 °F 30.20 in Calm     80% 0.00 in CLR
04:00 49.0 °F 43.1 °F 30.20 in Calm     80% 0.00 in CLR
04:15 48.7 °F 43.1 °F 30.20 in Calm     81% 0.00 in CLR
04:30 48.4 °F 42.9 °F 30.21 in Calm     81% 0.00 in CLR
04:45 48.4 °F 42.5 °F 30.21 in Calm     80% 0.00 in CLR
05:00 48.1 °F 42.5 °F 30.22 in Calm     81% 0.00 in CLR
05:15 47.6 °F 42.7 °F 30.22 in Calm     83% 0.00 in CLR
05:30 47.5 °F 42.6 °F 30.22 in Calm   1.0 mph 83% 0.00 in CLR
05:45 47.1 °F 42.5 °F 30.21 in Calm     84% 0.00 in CLR
06:00 47.0 °F 42.7 °F 30.22 in Calm   1.0 mph 85% 0.00 in CLR
06:15 47.0 °F 42.7 °F 30.22 in Calm   2.0 mph 85% 0.00 in CLR
06:30 47.4 °F 43.2 °F 30.22 in NNE 1.0 mph 4.0 mph 85% 0.00 in CLR
06:45 47.9 °F 43.3 °F 30.23 in Calm   3.0 mph 84% 0.00 in CLR
07:00 47.8 °F 43.2 °F 30.24 in Calm   2.0 mph 84% 0.00 in CLR
07:15 47.8 °F 43.2 °F 30.24 in Calm     84% 0.00 in CLR
07:30 47.9 °F 43.3 °F 30.24 in Calm     84% 0.00 in CLR
07:45 48.5 °F 43.9 °F 30.25 in Calm     84% 0.00 in CLR
08:00 50.5 °F 44.6 °F 30.25 in Calm   3.0 mph 80% 0.00 in CLR
08:15 52.0 °F 45.0 °F 30.26 in Calm   1.0 mph 77% 0.00 in CLR
08:30 52.8 °F 45.1 °F 30.25 in Calm   2.0 mph 75% 0.00 in CLR
08:45 53.7 °F 45.9 °F 30.25 in Calm   1.0 mph 75% 0.00 in CLR
09:00 54.6 °F 45.7 °F 30.25 in North 1.0 mph 3.0 mph 72% 0.00 in CLR
09:15 55.4 °F 46.5 °F 30.26 in NW 1.0 mph 3.0 mph 72% 0.00 in CLR
09:30 56.3 °F 46.7 °F 30.27 in Calm   3.0 mph 70% 0.00 in CLR
09:45 57.7 °F 46.8 °F 30.26 in Calm   3.0 mph 67% 0.00 in CLR
10:00 58.6 °F 45.6 °F 30.26 in NNW 1.0 mph 4.0 mph 62% 0.00 in CLR
10:15 59.5 °F 45.6 °F 30.27 in Calm   4.0 mph 60% 0.00 in CLR
10:30 61.0 °F 44.7 °F 30.27 in SW 2.0 mph 5.0 mph 55% 0.00 in CLR
10:45 61.1 °F 45.3 °F 30.27 in Calm   3.0 mph 56% 0.00 in CLR
11:00 61.0 °F 45.6 °F 30.27 in NE 1.0 mph 4.0 mph 57% 0.00 in CLR
11:15 61.4 °F 46.5 °F 30.26 in WNW 1.0 mph 4.0 mph 58% 0.00 in CLR
11:30 61.6 °F 46.2 °F 30.26 in Calm   4.0 mph 57% 0.00 in CLR
11:45 62.5 °F 46.6 °F 30.25 in SW 2.0 mph 5.0 mph 56% 0.00 in CLR
12:00 62.4 °F 47.0 °F 30.25 in WSW 2.0 mph 5.0 mph 57% 0.00 in CLR
12:15 63.0 °F 47.5 °F 30.25 in WNW 1.0 mph 5.0 mph 57% 0.00 in CLR
12:30 63.5 °F 48.0 °F 30.24 in West 1.0 mph 5.0 mph 57% 0.00 in CLR
12:45 65.5 °F 48.4 °F 30.23 in SSW 1.0 mph 6.0 mph 54% 0.00 in CLR
13:00 64.5 °F 49.0 °F 30.23 in NW 3.0 mph 8.0 mph 57% 0.00 in CLR
13:15 64.8 °F 48.8 °F 30.23 in NW 1.0 mph 8.0 mph 56% 0.00 in FEW
13:30 65.2 °F 48.6 °F 30.22 in SW 1.0 mph 4.0 mph 55% 0.00 in FEW
13:45 65.5 °F 48.9 °F 30.22 in South 3.0 mph 9.0 mph 55% 0.00 in FEW
14:00 65.4 °F 48.3 °F 30.21 in SW 2.0 mph 6.0 mph 54% 0.00 in FEW
14:15 65.5 °F 48.9 °F 30.21 in WSW 1.0 mph 6.0 mph 55% 0.00 in CLR
14:30 65.8 °F 48.7 °F 30.22 in SW 3.0 mph 8.0 mph 54% 0.00 in CLR
14:45 65.3 °F 48.3 °F 30.21 in SW 1.0 mph 7.0 mph 54% 0.00 in CLR
15:00 64.8 °F 49.2 °F 30.21 in SW 1.0 mph 10.0 mph 57% 0.00 in CLR
15:15 64.5 °F 48.0 °F 30.20 in West 1.0 mph 4.0 mph 55% 0.00 in CLR
15:30 64.8 °F 49.7 °F 30.20 in Calm   5.0 mph 58% 0.00 in CLR
15:45 65.0 °F 48.9 °F 30.19 in WSW 1.0 mph 5.0 mph 56% 0.00 in CLR
16:00 65.2 °F 49.1 °F 30.18 in WSW 1.0 mph 5.0 mph 56% 0.00 in CLR
16:15 65.3 °F 49.2 °F 30.18 in Calm   5.0 mph 56% 0.00 in SCT
16:30 65.0 °F 49.4 °F 30.18 in West 1.0 mph 3.0 mph 57% 0.00 in SCT
16:45 64.4 °F 49.3 °F 30.17 in Calm   2.0 mph 58% 0.00 in SCT
17:00 63.8 °F 49.2 °F 30.18 in Calm   2.0 mph 59% 0.00 in SCT
17:15 63.2 °F 49.1 °F 30.18 in Calm   2.0 mph 60% 0.00 in SCT
17:30 63.0 °F 49.8 °F 30.18 in Calm   2.0 mph 62% 0.00 in SCT
17:45 62.4 °F 49.7 °F 30.17 in Calm   2.0 mph 63% 0.00 in SCT
18:00 62.1 °F 49.8 °F 30.17 in Calm   3.0 mph 64% 0.00 in SCT
18:15 62.0 °F 50.5 °F 30.16 in Calm   1.0 mph 66% 0.00 in SCT
18:30 61.6 °F 50.5 °F 30.16 in Calm   3.0 mph 67% 0.00 in SCT
18:45 61.4 °F 50.7 °F 30.16 in Calm   6.0 mph 68% 0.00 in SCT
19:00 61.3 °F 50.6 °F 30.15 in Calm   5.0 mph 68% 0.00 in SCT
19:15 61.1 °F 50.5 °F 30.16 in Calm   2.0 mph 68% 0.00 in SCT
19:30 61.0 °F 50.8 °F 30.17 in Calm   2.0 mph 69% 0.00 in SCT
19:45 60.7 °F 52.0 °F 30.17 in Calm   1.0 mph 73% 0.00 in SCT
20:00 59.6 °F 52.0 °F 30.17 in Calm   1.0 mph 76% 0.00 in SCT
20:15 59.2 °F 52.4 °F 30.17 in Calm   1.0 mph 78% 0.00 in -RA
20:30 58.1 °F 52.6 °F 30.16 in Calm   4.0 mph 82% 0.02 in -RA
20:45 57.4 °F 53.6 °F 30.17 in Calm     87% 0.03 in -RA
21:00 56.8 °F 53.9 °F 30.17 in Calm   1.0 mph 90% 0.02 in -RA
21:15 56.7 °F 54.1 °F 30.17 in Calm     91% 0.02 in -RA
21:30 56.6 °F 54.3 °F 30.18 in Calm   1.0 mph 92% 0.02 in -RA
21:45 56.5 °F 54.2 °F 30.17 in Calm     92% 0.03 in -RA
22:00 56.4 °F 54.4 °F 30.16 in Calm   2.0 mph 93% 0.03 in -RA
22:15 56.4 °F 54.7 °F 30.15 in Calm   1.0 mph 94% 0.05 in -RA
22:30 56.3 °F 54.6 °F 30.16 in Calm   1.0 mph 94% 0.02 in -RA
22:45 56.4 °F 55.0 °F 30.16 in Calm     95% 0.02 in -RA
23:00 56.5 °F 55.1 °F 30.15 in Calm     95% 0.03 in -RA
23:30 56.3 °F 54.9 °F 30.14 in Calm   2.0 mph 95% 0.03 in -RA
23:45 56.0 °F 54.6 °F 30.13 in East 1.0 mph 3.0 mph 95% 0.03 in -RA
TarryTown NY Weather
Compliments of Weather Underground - 1.5 mb